METAR Data
IDs: Format: Raw Decoded Include TAF

Data at: 1825 UTC 16 Oct 2021

KPIL 161753Z AUTO 35020G29KT 10SM OVC042 25/16 A3023 RMK AO2 PK WND 35029/1752 SLP236 T02500161 10250 20228 50003
KPIL 161653Z AUTO 35018G25KT 10SM OVC040 24/16 A3024 RMK AO2 PK WND 35027/1625 SLP240 T02390156
KPIL 161553Z AUTO 35015G25KT 10SM OVC036 23/17 A3023 RMK AO2 PK WND 35026/1521 SLP237 T02330167
KPIL 161453Z AUTO 35015KT 10SM OVC033 23/17 A3022 RMK AO2 PK WND 01027/1405 SLP234 T02280172 53034
KPIL 161353Z AUTO 01017G26KT 10SM OVC030 23/18 A3018 RMK AO2 PK WND 01029/1307 SLP220 T02330178
KPIL 161335Z AUTO 36017G27KT 10SM OVC030 23/18 A3017 RMK AO2 PK WND 01029/1307 T02330178
KPIL 161253Z AUTO 01019G27KT 10SM OVC028 23/18 A3015 RMK AO2 PK WND 01029/1222 SLP209 T02330183
KPIL 161153Z AUTO 01017G27KT 10SM OVC027 23/19 A3012 RMK AO2 PK WND 01028/1140 SLP200 60388 70388 T02330189 10261 20228 53010
KPIL 161053Z AUTO 01017G24KT 10SM OVC025 23/21 A3011 RMK AO2 RAE34 SLP194 P0006 T02330206
KPIL 160953Z AUTO 02015G20KT 4SM +RA BR FEW020 BKN026 OVC031 23/22 A3009 RMK AO2 PK WND 03026/0931 LTG DSNT E AND SE SLP189 P0077 T02280217
KPIL 160950Z AUTO 02012G20KT 4SM +RA BR FEW020 OVC026 23/22 A3009 RMK AO2 PK WND 03026/0931 LTG DSNT E AND SE P0075
KPIL 160923Z AUTO 02016G22KT 2 1/2SM +RA BR FEW005 BKN018 OVC029 23/22 A3008 RMK AO2 LTG DSNT NE-S P0055 T02280222
KPIL 160909Z AUTO 02014G24KT 1SM +RA BR FEW003 OVC016 23/23 A3008 RMK AO2 LTG DSNT NE-S P0045 T02330228
KPIL 160853Z AUTO 03013G27KT 1SM VCTS +RA BR FEW004 OVC012 23/23 A3007 RMK AO2 PK WND 04033/0840 WSHFT 0808 LTG DSNT NE-S TSE30 SLP182 P0177 60305 T02330228 51007
KPIL 160851Z AUTO 03012G27KT 1SM VCTS +RA BR FEW004 OVC012 23/23 A3007 RMK AO2 PK WND 04033/0840 WSHFT 0808 LTG DSNT NE-S TSE30 P0175
KPIL 160841Z AUTO 04021G33KT 1SM VCTS +RA BR FEW004 OVC009 24/23 A3006 RMK AO2 PK WND 04033/0840 WSHFT 0808 LTG DSNT NE-S TSE30 P0154 T02390228
KPIL 160834Z AUTO 02012G29KT 3/4SM VCTS +RA BR FEW006 OVC011 24/23 A3006 RMK AO2 PK WND 01029/0827 WSHFT 0808 LTG DSNT NE TSE30 P0136 T02390233
KPIL 160828Z AUTO 02020G29KT 3/4SM +TSRA BR VV011 24/23 A3006 RMK AO2 PK WND 01029/0827 WSHFT 0808 LTG DSNT NE P0109 T02390228
KPIL 160817Z AUTO 03020G29KT 3/4SM +TSRA BR FEW007 BKN011 OVC028 24/23 A3005 RMK AO2 PK WND 03029/0816 LTG DSNT N AND NE P0064 T02390228
KPIL 160811Z AUTO 02018G27KT 1 1/2SM +TSRA BR BKN009 BKN013 OVC028 24/23 A3005 RMK AO2 PK WND 03027/0811 LTG DSNT N-E P0041 T02440233
KPIL 160803Z AUTO 26007G18KT 3/4SM +TSRA BR VV010 24/23 A3005 RMK AO2 LTG DSNT NE AND E P0033 T02440233
KPIL 160753Z AUTO 30011G33KT 1/2SM +TSRA FG BKN008 OVC015 24/23 A3006 RMK AO2 PK WND 31033/0746 RAB19 TSB22E45B50 PRESRR SLP177 P0128 T02440233
KPIL 160740Z AUTO 30022G30KT 3/4SM +TSRA BR BKN009 BKN020 OVC085 25/23 A3005 RMK AO2 PK WND 31030/0739 LTG DSNT NE RAB19 TSB22 P0045 T02500233
KPIL 160738Z AUTO 32021G26KT 1 1/4SM +TSRA BR BKN011 BKN020 OVC100 26/23 A3004 RMK AO2 PK WND 31026/0738 LTG DSNT NE RAB19 TSB22 P0027 T02560233
KPIL 160736Z AUTO 33013G23KT 2 1/2SM +TSRA BR SCT011 BKN020 OVC100 26/23 A3004 RMK AO2 LTG DSNT NE RAB19 TSB22 P0014 T02560233
KPIL 160722Z AUTO 26005KT 10SM -TSRA FEW020 BKN085 OVC100 26/23 A3004 RMK AO2 LTG DSNT NE AND W RAB19 TSB22 P0000 T02560233
KPIL 160653Z AUTO 31005KT 10SM FEW070 26/23 A3004 RMK AO2 SLP173 T02610233
KPIL 160553Z AUTO 00000KT 10SM CLR 26/23 A3004 RMK AO2 SLP172 T02560233 10283 20250 403170250 51023
KPIL 160453Z AUTO 04004KT 10SM CLR 26/23 A3003 RMK AO2 SLP168 T02560228
KPIL 160353Z AUTO 00000KT 10SM CLR 26/23 A3001 RMK AO2 SLP163 T02610228
KPIL 160253Z AUTO 16003KT 10SM CLR 26/23 A2997 RMK AO2 SLP149 T02560228 50026
KPIL 160153Z AUTO 00000KT 10SM CLR 26/23 A2998 RMK AO2 SLP151 T02610228
KPIL 160053Z AUTO 10SM CLR 27/23 A2994 RMK AO2 SLP139 T02720233
KPIL 152353Z AUTO 12008KT 10SM CLR 28/23 A2990 RMK AO2 SLP123 T02830228 10317 20283 53003
KPIL 152253Z AUTO 11010KT 10SM CLR 29/23 A2989 RMK AO2 SLP120 T02940228
KPIL 152153Z AUTO 10012KT 10SM CLR 31/23 A2989 RMK AO2 SLP120 T03060233
KPIL 152053Z AUTO 10013KT 10SM CLR 31/24 A2989 RMK AO2 SLP120 T03110239 55012
KPIL 151953Z AUTO 11013KT 10SM CLR 31/24 A2988 RMK AO2 SLP118 T03110239
KPIL 151853Z AUTO 10012KT 10SM CLR 32/24 A2990 RMK AO2 SLP125 T03170244
KPIL 151753Z AUTO 11011G17KT 10SM CLR 32/24 A2992 RMK AO2 SLP132 T03170244 10317 20256 50001
KPIL 151720Z AUTO 13008KT 10SM SCT027 SCT032 BKN046 31/24 A2993 RMK AO2 T03110239
KPIL 151710Z AUTO 12010KT 10SM BKN027 BKN033 31/24 A2993 RMK AO2 T03110239
KPIL 151653Z AUTO 13009KT 10SM SCT026 31/24 A2994 RMK AO2 SLP137 T03110239
KPIL 151553Z AUTO 14006KT 10SM SCT023 31/24 A2993 RMK AO2 SLP136 T03060239
KPIL 151453Z AUTO 16009KT 10SM CLR 29/24 A2992 RMK AO2 SLP131 T02940239 53020
KPIL 151353Z AUTO 15007KT 8SM CLR 28/24 A2990 RMK AO2 SLP123 T02780239
KPIL 151253Z AUTO 7SM CLR 26/23 A2988 RMK AO2 SLP116 T02560233
KPIL 151153Z AUTO 15005KT 8SM CLR 26/23 A2986 RMK AO2 SLP110 T02560233 10267 20256 53012
KPIL 151053Z AUTO 15005KT 8SM CLR 26/23 A2984 RMK AO2 SLP105 T02560233
KPIL 150953Z AUTO 15005KT 7SM CLR 26/24 A2983 RMK AO2 SLP101 T02560239
KPIL 150853Z AUTO 15004KT 7SM CLR 26/24 A2983 RMK AO2 SLP099 T02610244 56006
KPIL 150753Z AUTO 15005KT 7SM CLR 26/24 A2983 RMK AO2 SLP100 T02610244
KPIL 150653Z AUTO 16005KT 7SM CLR 26/24 A2984 RMK AO2 SLP103 T02610239